sensor_id;sensor_type;location;lat;lon;timestamp;pressure;altitude;pressure_sealevel;temperature;humidity
31337;BME280;22846;42.654;23.314;2023-11-19T00:01:27;94435.63;;;24.06;47.18
31337;BME280;22846;42.654;23.314;2023-11-19T00:03:53;94445.22;;;24.10;47.21
31337;BME280;22846;42.654;23.314;2023-11-19T00:06:18;94435.16;;;24.07;46.98
31337;BME280;22846;42.654;23.314;2023-11-19T00:08:44;94433.34;;;24.04;47.28
31337;BME280;22846;42.654;23.314;2023-11-19T00:11:09;94439.88;;;24.07;47.29
31337;BME280;22846;42.654;23.314;2023-11-19T00:13:35;94428.22;;;24.06;47.21
31337;BME280;22846;42.654;23.314;2023-11-19T00:16:00;94434.88;;;24.05;47.52
31337;BME280;22846;42.654;23.314;2023-11-19T00:18:25;94429.41;;;24.05;47.51
31337;BME280;22846;42.654;23.314;2023-11-19T00:20:51;94438.78;;;24.04;47.20
31337;BME280;22846;42.654;23.314;2023-11-19T00:23:16;94440.75;;;24.04;47.03
31337;BME280;22846;42.654;23.314;2023-11-19T00:25:42;94442.72;;;24.03;47.09
31337;BME280;22846;42.654;23.314;2023-11-19T00:28:07;94425.81;;;23.96;47.54
31337;BME280;22846;42.654;23.314;2023-11-19T00:30:33;94432.03;;;23.96;47.14
31337;BME280;22846;42.654;23.314;2023-11-19T00:32:58;94430.38;;;23.99;47.17
31337;BME280;22846;42.654;23.314;2023-11-19T00:35:23;94440.84;;;24.00;47.30
31337;BME280;22846;42.654;23.314;2023-11-19T00:37:49;94451.78;;;24.00;47.31
31337;BME280;22846;42.654;23.314;2023-11-19T00:40:16;94450.81;;;23.94;47.43
31337;BME280;22846;42.654;23.314;2023-11-19T00:42:43;94448.41;;;23.96;47.55
31337;BME280;22846;42.654;23.314;2023-11-19T00:45:09;94461.63;;;23.98;47.37
31337;BME280;22846;42.654;23.314;2023-11-19T00:47:35;94460.88;;;23.97;46.88
31337;BME280;22846;42.654;23.314;2023-11-19T00:50:02;94432.47;;;23.83;47.48
31337;BME280;22846;42.654;23.314;2023-11-19T00:52:27;94446.22;;;23.92;47.16
31337;BME280;22846;42.654;23.314;2023-11-19T00:54:53;94445.47;;;23.91;47.17
31337;BME280;22846;42.654;23.314;2023-11-19T00:57:19;94446.66;;;23.90;47.35
31337;BME280;22846;42.654;23.314;2023-11-19T00:59:44;94455.19;;;23.92;47.13
31337;BME280;22846;42.654;23.314;2023-11-19T01:02:10;94447.75;;;23.92;47.07
31337;BME280;22846;42.654;23.314;2023-11-19T01:04:36;94457.13;;;23.92;47.48
31337;BME280;22846;42.654;23.314;2023-11-19T01:07:05;94457.13;;;23.92;47.66
31337;BME280;22846;42.654;23.314;2023-11-19T01:09:32;94448.63;;;23.90;47.67
31337;BME280;22846;42.654;23.314;2023-11-19T01:11:58;94441.09;;;23.81;47.37
31337;BME280;22846;42.654;23.314;2023-11-19T01:14:25;94466.22;;;23.89;47.20
31337;BME280;22846;42.654;23.314;2023-11-19T01:16:51;94464.69;;;23.88;47.66
31337;BME280;22846;42.654;23.314;2023-11-19T01:19:19;94454.97;;;23.87;47.16
31337;BME280;22846;42.654;23.314;2023-11-19T01:21:44;94452.34;;;23.83;47.20
31337;BME280;22846;42.654;23.314;2023-11-19T01:24:09;94453.78;;;23.88;47.20
31337;BME280;22846;42.654;23.314;2023-11-19T01:26:37;94452.78;;;23.82;47.35
31337;BME280;22846;42.654;23.314;2023-11-19T01:29:02;94453.44;;;23.86;47.71
31337;BME280;22846;42.654;23.314;2023-11-19T01:31:30;94454.84;;;23.78;47.50
31337;BME280;22846;42.654;23.314;2023-11-19T01:33:56;94469.81;;;23.86;47.28
31337;BME280;22846;42.654;23.314;2023-11-19T01:36:22;94469.25;;;23.78;47.25
31337;BME280;22846;42.654;23.314;2023-11-19T01:38:48;94467.41;;;23.75;47.63
31337;BME280;22846;42.654;23.314;2023-11-19T01:41:14;94477.31;;;23.82;47.41
31337;BME280;22846;42.654;23.314;2023-11-19T01:43:40;94468.16;;;23.76;47.21
31337;BME280;22846;42.654;23.314;2023-11-19T01:46:12;94465.66;;;23.81;47.58
31337;BME280;22846;42.654;23.314;2023-11-19T01:48:41;94473.50;;;23.79;47.42
31337;BME280;22846;42.654;23.314;2023-11-19T01:51:08;94472.88;;;23.75;47.44
31337;BME280;22846;42.654;23.314;2023-11-19T01:53:35;94462.56;;;23.67;47.55
31337;BME280;22846;42.654;23.314;2023-11-19T01:56:02;94487.28;;;23.76;47.32
31337;BME280;22846;42.654;23.314;2023-11-19T01:58:29;94473.94;;;23.65;47.65
31337;BME280;22846;42.654;23.314;2023-11-19T02:00:55;94482.75;;;23.69;47.32
31337;BME280;22846;42.654;23.314;2023-11-19T02:03:21;94484.53;;;23.76;47.62
31337;BME280;22846;42.654;23.314;2023-11-19T02:05:50;94482.34;;;23.71;47.29
31337;BME280;22846;42.654;23.314;2023-11-19T02:08:16;94455.59;;;23.66;47.16
31337;BME280;22846;42.654;23.314;2023-11-19T02:10:41;94458.53;;;23.71;47.52
31337;BME280;22846;42.654;23.314;2023-11-19T02:13:08;94442.72;;;23.66;47.72
31337;BME280;22846;42.654;23.314;2023-11-19T02:15:35;94442.72;;;23.66;47.59
31337;BME280;22846;42.654;23.314;2023-11-19T02:18:23;94452.63;;;23.73;47.50
31337;BME280;22846;42.654;23.314;2023-11-19T02:20:52;94439.53;;;23.68;47.77
31337;BME280;22846;42.654;23.314;2023-11-19T02:23:19;94442.59;;;23.70;47.64
31337;BME280;22846;42.654;23.314;2023-11-19T02:28:24;94455.47;;;23.69;47.20
31337;BME280;22846;42.654;23.314;2023-11-19T02:30:50;94465.63;;;23.69;47.67
31337;BME280;22846;42.654;23.314;2023-11-19T02:33:15;94458.31;;;23.66;47.70
31337;BME280;22846;42.654;23.314;2023-11-19T02:35:41;94464.44;;;23.70;47.39
31337;BME280;22846;42.654;23.314;2023-11-19T02:38:07;94452.22;;;23.62;47.28
31337;BME280;22846;42.654;23.314;2023-11-19T02:40:32;94459.09;;;23.66;47.29
31337;BME280;22846;42.654;23.314;2023-11-19T02:42:58;94469.66;;;23.64;47.61
31337;BME280;22846;42.654;23.314;2023-11-19T02:45:24;94468.81;;;23.67;47.68
31337;BME280;22846;42.654;23.314;2023-11-19T02:47:51;94457.22;;;23.63;47.64
31337;BME280;22846;42.654;23.314;2023-11-19T02:50:18;94458.53;;;23.59;47.42
31337;BME280;22846;42.654;23.314;2023-11-19T02:52:50;94462.78;;;23.60;47.51
31337;BME280;22846;42.654;23.314;2023-11-19T02:55:16;94470.00;;;23.66;47.83
31337;BME280;22846;42.654;23.314;2023-11-19T02:57:43;94467.28;;;23.66;47.72
31337;BME280;22846;42.654;23.314;2023-11-19T03:00:21;94456.38;;;23.66;47.26
31337;BME280;22846;42.654;23.314;2023-11-19T03:02:53;94457.56;;;23.65;47.60
31337;BME280;22846;42.654;23.314;2023-11-19T03:05:26;94445.56;;;23.63;47.62
31337;BME280;22846;42.654;23.314;2023-11-19T03:07:52;94442.84;;;23.63;47.58
31337;BME280;22846;42.654;23.314;2023-11-19T03:10:18;94439.09;;;23.57;47.70
31337;BME280;22846;42.654;23.314;2023-11-19T03:12:44;94449.03;;;23.63;47.68
31337;BME280;22846;42.654;23.314;2023-11-19T03:15:11;94450.22;;;23.62;47.65
31337;BME280;22846;42.654;23.314;2023-11-19T03:17:40;94449.78;;;23.64;47.20
31337;BME280;22846;42.654;23.314;2023-11-19T03:20:07;94454.94;;;23.62;47.63
31337;BME280;22846;42.654;23.314;2023-11-19T03:22:39;94452.00;;;23.56;47.46
31337;BME280;22846;42.654;23.314;2023-11-19T03:25:06;94459.28;;;23.59;47.57
31337;BME280;22846;42.654;23.314;2023-11-19T03:27:37;94461.59;;;23.61;47.34
31337;BME280;22846;42.654;23.314;2023-11-19T03:30:05;94454.28;;;23.58;47.51
31337;BME280;22846;42.654;23.314;2023-11-19T03:32:31;94456.56;;;23.59;47.13
31337;BME280;22846;42.654;23.314;2023-11-19T03:34:57;94459.09;;;23.54;47.38
31337;BME280;22846;42.654;23.314;2023-11-19T03:37:23;94461.25;;;23.59;47.68
31337;BME280;22846;42.654;23.314;2023-11-19T03:39:49;94459.09;;;23.54;47.50
31337;BME280;22846;42.654;23.314;2023-11-19T03:42:14;94453.28;;;23.52;47.54
31337;BME280;22846;42.654;23.314;2023-11-19T03:44:40;94464.19;;;23.52;47.24
31337;BME280;22846;42.654;23.314;2023-11-19T03:47:05;94475.34;;;23.57;47.48
31337;BME280;22846;42.654;23.314;2023-11-19T03:49:31;94472.06;;;23.50;47.70
31337;BME280;22846;42.654;23.314;2023-11-19T03:51:57;94485.16;;;23.55;47.61
31337;BME280;22846;42.654;23.314;2023-11-19T03:54:23;94477.06;;;23.51;47.24
31337;BME280;22846;42.654;23.314;2023-11-19T03:56:48;94493.34;;;23.55;47.34
31337;BME280;22846;42.654;23.314;2023-11-19T03:59:14;94487.56;;;23.53;47.19
31337;BME280;22846;42.654;23.314;2023-11-19T04:01:40;94484.50;;;23.51;47.64
31337;BME280;22846;42.654;23.314;2023-11-19T04:04:06;94497.28;;;23.54;47.41
31337;BME280;22846;42.654;23.314;2023-11-19T04:06:32;94485.34;;;23.48;47.30
31337;BME280;22846;42.654;23.314;2023-11-19T04:08:57;94491.03;;;23.53;47.41
31337;BME280;22846;42.654;23.314;2023-11-19T04:11:22;94493.53;;;23.48;47.30
31337;BME280;22846;42.654;23.314;2023-11-19T04:13:48;94508.69;;;23.49;47.46
31337;BME280;22846;42.654;23.314;2023-11-19T04:16:14;94507.50;;;23.50;47.51
31337;BME280;22846;42.654;23.314;2023-11-19T04:18:40;94511.00;;;23.50;47.26
31337;BME280;22846;42.654;23.314;2023-11-19T04:21:09;94512.31;;;23.46;47.42
31337;BME280;22846;42.654;23.314;2023-11-19T04:23:34;94513.75;;;23.50;47.41
31337;BME280;22846;42.654;23.314;2023-11-19T04:26:03;94500.72;;;23.42;47.31
31337;BME280;22846;42.654;23.314;2023-11-19T04:28:30;94500.28;;;23.43;47.42
31337;BME280;22846;42.654;23.314;2023-11-19T04:30:56;94505.22;;;23.48;47.36
31337;BME280;22846;42.654;23.314;2023-11-19T04:33:21;94509.91;;;23.48;47.37
31337;BME280;22846;42.654;23.314;2023-11-19T04:35:46;94518.06;;;23.48;47.16
31337;BME280;22846;42.654;23.314;2023-11-19T04:38:12;94527.47;;;23.47;47.26
31337;BME280;22846;42.654;23.314;2023-11-19T04:40:37;94521.69;;;23.45;47.37
31337;BME280;22846;42.654;23.314;2023-11-19T04:45:28;94525.94;;;23.46;47.09
31337;BME280;22846;42.654;23.314;2023-11-19T04:47:53;94519.38;;;23.43;47.12
31337;BME280;22846;42.654;23.314;2023-11-19T04:50:19;94536.09;;;23.45;47.40
31337;BME280;22846;42.654;23.314;2023-11-19T04:52:44;94534.56;;;23.44;47.25
31337;BME280;22846;42.654;23.314;2023-11-19T04:55:10;94528.53;;;23.37;47.19
31337;BME280;22846;42.654;23.314;2023-11-19T04:57:40;94527.31;;;23.38;47.51
31337;BME280;22846;42.654;23.314;2023-11-19T05:00:05;94529.19;;;23.41;47.56
31337;BME280;22846;42.654;23.314;2023-11-19T05:02:33;94542.72;;;23.44;47.25
31337;BME280;22846;42.654;23.314;2023-11-19T05:04:58;94535.94;;;23.36;47.51
31337;BME280;22846;42.654;23.314;2023-11-19T05:07:25;94559.19;;;23.41;47.34
31337;BME280;22846;42.654;23.314;2023-11-19T05:09:51;94570.09;;;23.41;47.38
31337;BME280;22846;42.654;23.314;2023-11-19T05:12:17;94576.66;;;23.43;47.01
31337;BME280;22846;42.654;23.314;2023-11-19T05:14:42;94564.75;;;23.37;47.49
31337;BME280;22846;42.654;23.314;2023-11-19T05:17:14;94566.72;;;23.37;47.56
31337;BME280;22846;42.654;23.314;2023-11-19T05:19:39;94565.84;;;23.40;47.16
31337;BME280;22846;42.654;23.314;2023-11-19T05:22:06;94568.91;;;23.42;47.46
31337;BME280;22846;42.654;23.314;2023-11-19T05:24:32;94548.50;;;23.34;47.28
31337;BME280;22846;42.654;23.314;2023-11-19T05:26:58;94569.66;;;23.42;47.45
31337;BME280;22846;42.654;23.314;2023-11-19T05:29:23;94547.53;;;23.40;47.24
31337;BME280;22846;42.654;23.314;2023-11-19T05:31:51;94533.75;;;23.31;47.35
31337;BME280;22846;42.654;23.314;2023-11-19T05:34:16;94553.09;;;23.37;47.54
31337;BME280;22846;42.654;23.314;2023-11-19T05:36:41;94554.59;;;23.38;47.37
31337;BME280;22846;42.654;23.314;2023-11-19T05:39:07;94561.59;;;23.39;47.35
31337;BME280;22846;42.654;23.314;2023-11-19T05:41:32;94553.59;;;23.32;46.97
31337;BME280;22846;42.654;23.314;2023-11-19T05:43:58;94576.41;;;23.38;47.10
31337;BME280;22846;42.654;23.314;2023-11-19T05:46:23;94575.75;;;23.34;47.38
31337;BME280;22846;42.654;23.314;2023-11-19T05:48:50;94572.59;;;23.35;47.44
31337;BME280;22846;42.654;23.314;2023-11-19T05:51:16;94572.25;;;23.33;47.11
31337;BME280;22846;42.654;23.314;2023-11-19T05:53:42;94561.88;;;23.28;47.18
31337;BME280;22846;42.654;23.314;2023-11-19T05:56:08;94571.75;;;23.38;47.19
31337;BME280;22846;42.654;23.314;2023-11-19T05:58:34;94575.66;;;23.37;47.19
31337;BME280;22846;42.654;23.314;2023-11-19T06:01:01;94574.91;;;23.37;47.44
31337;BME280;22846;42.654;23.314;2023-11-19T06:03:27;94565.69;;;23.31;47.01
31337;BME280;22846;42.654;23.314;2023-11-19T06:05:53;94583.09;;;23.37;47.20
31337;BME280;22846;42.654;23.314;2023-11-19T06:08:19;94577.41;;;23.31;47.22
31337;BME280;22846;42.654;23.314;2023-11-19T06:10:46;94592.56;;;23.32;47.23
31337;BME280;22846;42.654;23.314;2023-11-19T06:13:12;94585.97;;;23.30;47.54
31337;BME280;22846;42.654;23.314;2023-11-19T06:15:41;94591.78;;;23.32;47.12
31337;BME280;22846;42.654;23.314;2023-11-19T06:18:06;94587.84;;;23.33;47.37
31337;BME280;22846;42.654;23.314;2023-11-19T06:20:32;94600.63;;;23.36;47.15
31337;BME280;22846;42.654;23.314;2023-11-19T06:22:59;94595.94;;;23.36;47.34
31337;BME280;22846;42.654;23.314;2023-11-19T06:25:24;94593.66;;;23.35;47.26
31337;BME280;22846;42.654;23.314;2023-11-19T06:27:50;94601.06;;;23.34;47.23
31337;BME280;22846;42.654;23.314;2023-11-19T06:30:16;94586.31;;;23.32;47.44
31337;BME280;22846;42.654;23.314;2023-11-19T06:32:42;94604.66;;;23.31;47.49
31337;BME280;22846;42.654;23.314;2023-11-19T06:35:08;94585.56;;;23.31;46.99
31337;BME280;22846;42.654;23.314;2023-11-19T06:37:34;94586.66;;;23.34;47.25
31337;BME280;22846;42.654;23.314;2023-11-19T06:40:00;94594.06;;;23.33;47.22
31337;BME280;22846;42.654;23.314;2023-11-19T06:42:25;94591.13;;;23.28;47.55
31337;BME280;22846;42.654;23.314;2023-11-19T06:44:50;94572.13;;;23.24;47.11
31337;BME280;22846;42.654;23.314;2023-11-19T06:47:17;94585.22;;;23.29;47.71
31337;BME280;22846;42.654;23.314;2023-11-19T06:49:45;94590.69;;;23.29;47.11
31337;BME280;22846;42.654;23.314;2023-11-19T06:52:10;94594.94;;;23.30;47.10
31337;BME280;22846;42.654;23.314;2023-11-19T06:54:37;94584.97;;;23.24;47.40
31337;BME280;22846;42.654;23.314;2023-11-19T06:57:03;94580.72;;;23.23;47.39
31337;BME280;22846;42.654;23.314;2023-11-19T06:59:30;94587.38;;;23.22;47.17
31337;BME280;22846;42.654;23.314;2023-11-19T07:01:56;94598.53;;;23.27;47.26
31337;BME280;22846;42.654;23.314;2023-11-19T07:04:21;94609.78;;;23.29;47.12
31337;BME280;22846;42.654;23.314;2023-11-19T07:06:47;94600.16;;;23.25;47.40
31337;BME280;22846;42.654;23.314;2023-11-19T07:09:13;94607.03;;;23.29;47.29
31337;BME280;22846;42.654;23.314;2023-11-19T07:11:39;94609.19;;;23.22;47.17
31337;BME280;22846;42.654;23.314;2023-11-19T07:14:05;94621.88;;;23.28;47.31
31337;BME280;22846;42.654;23.314;2023-11-19T07:16:35;94603.72;;;23.22;47.20
31337;BME280;22846;42.654;23.314;2023-11-19T07:19:03;94601.00;;;23.22;47.10
31337;BME280;22846;42.654;23.314;2023-11-19T07:21:28;94617.69;;;23.24;47.06
31337;BME280;22846;42.654;23.314;2023-11-19T07:23:54;94605.81;;;23.18;46.84
31337;BME280;22846;42.654;23.314;2023-11-19T07:26:20;94624.69;;;23.25;47.17
31337;BME280;22846;42.654;23.314;2023-11-19T07:28:45;94614.97;;;23.24;47.23
31337;BME280;22846;42.654;23.314;2023-11-19T07:31:12;94624.69;;;23.25;46.82
31337;BME280;22846;42.654;23.314;2023-11-19T07:33:39;94630.91;;;23.25;46.95
31337;BME280;22846;42.654;23.314;2023-11-19T07:36:07;94642.25;;;23.24;46.93
31337;BME280;22846;42.654;23.314;2023-11-19T07:38:33;94651.09;;;23.28;46.99
31337;BME280;22846;42.654;23.314;2023-11-19T07:40:58;94645.75;;;23.24;46.87
31337;BME280;22846;42.654;23.314;2023-11-19T07:43:24;94642.69;;;23.22;46.73
31337;BME280;22846;42.654;23.314;2023-11-19T07:45:49;94650.06;;;23.22;47.08
31337;BME280;22846;42.654;23.314;2023-11-19T07:48:15;94650.75;;;23.26;46.63
31337;BME280;22846;42.654;23.314;2023-11-19T07:50:40;94656.56;;;23.28;46.94
31337;BME280;22846;42.654;23.314;2023-11-19T07:53:07;94655.03;;;23.27;46.85
31337;BME280;22846;42.654;23.314;2023-11-19T07:55:33;94652.50;;;23.20;46.98
31337;BME280;22846;42.654;23.314;2023-11-19T07:57:58;94660.13;;;23.25;47.16
31337;BME280;22846;42.654;23.314;2023-11-19T08:00:24;94660.47;;;23.27;47.04
31337;BME280;22846;42.654;23.314;2023-11-19T08:02:49;94664.75;;;23.28;46.92
31337;BME280;22846;42.654;23.314;2023-11-19T08:05:14;94665.94;;;23.27;46.79
31337;BME280;22846;42.654;23.314;2023-11-19T08:07:40;94665.25;;;23.23;46.91
31337;BME280;22846;42.654;23.314;2023-11-19T08:10:07;94677.59;;;23.27;47.04
31337;BME280;22846;42.654;23.314;2023-11-19T08:12:35;94673.34;;;23.26;47.13
31337;BME280;22846;42.654;23.314;2023-11-19T08:15:02;94665.25;;;23.23;46.54
31337;BME280;22846;42.654;23.314;2023-11-19T08:17:27;94659.88;;;23.19;46.88
31337;BME280;22846;42.654;23.314;2023-11-19T08:19:53;94684.22;;;23.26;46.55
31337;BME280;22846;42.654;23.314;2023-11-19T08:22:18;94678.88;;;23.23;46.85
31337;BME280;22846;42.654;23.314;2023-11-19T08:24:44;94648.16;;;23.07;46.82
31337;BME280;22846;42.654;23.314;2023-11-19T08:27:09;94659.97;;;23.16;46.88
31337;BME280;22846;42.654;23.314;2023-11-19T08:29:35;94673.50;;;23.19;46.61
31337;BME280;22846;42.654;23.314;2023-11-19T08:32:01;94674.22;;;23.23;46.97
31337;BME280;22846;42.654;23.314;2023-11-19T08:34:29;94671.03;;;23.25;46.81
31337;BME280;22846;42.654;23.314;2023-11-19T08:36:55;94665.78;;;23.18;46.73
31337;BME280;22846;42.654;23.314;2023-11-19T08:39:21;94673.94;;;23.18;46.92
31337;BME280;22846;42.654;23.314;2023-11-19T08:41:49;94680.50;;;23.20;46.85
31337;BME280;22846;42.654;23.314;2023-11-19T08:44:16;94697.22;;;23.22;46.69
31337;BME280;22846;42.654;23.314;2023-11-19T08:46:51;94670.88;;;23.16;46.71
31337;BME280;22846;42.654;23.314;2023-11-19T08:49:17;94675.06;;;23.20;46.84
31337;BME280;22846;42.654;23.314;2023-11-19T08:51:42;94673.59;;;23.16;46.61
31337;BME280;22846;42.654;23.314;2023-11-19T08:54:08;94680.41;;;23.24;46.67
31337;BME280;22846;42.654;23.314;2023-11-19T08:56:33;94685.88;;;23.24;46.66
31337;BME280;22846;42.654;23.314;2023-11-19T08:59:00;94684.75;;;23.21;46.91
31337;BME280;22846;42.654;23.314;2023-11-19T09:01:26;94680.34;;;23.11;46.64
31337;BME280;22846;42.654;23.314;2023-11-19T09:03:51;94669.00;;;23.13;46.75
31337;BME280;22846;42.654;23.314;2023-11-19T09:06:17;94659.88;;;23.19;46.36
31337;BME280;22846;42.654;23.314;2023-11-19T09:08:43;94667.22;;;23.22;46.88
31337;BME280;22846;42.654;23.314;2023-11-19T09:11:08;94660.56;;;23.23;46.48
31337;BME280;22846;42.654;23.314;2023-11-19T09:13:35;94651.63;;;23.23;46.59
31337;BME280;22846;42.654;23.314;2023-11-19T09:16:00;94646.16;;;23.23;46.52
31337;BME280;22846;42.654;23.314;2023-11-19T09:18:31;94632.47;;;23.10;46.34
31337;BME280;22846;42.654;23.314;2023-11-19T09:20:57;94645.50;;;23.19;46.63
31337;BME280;22846;42.654;23.314;2023-11-19T09:23:23;94657.06;;;23.23;46.64
31337;BME280;22846;42.654;23.314;2023-11-19T09:25:50;94659.38;;;23.24;48.05
31337;BME280;22846;42.654;23.314;2023-11-19T09:28:16;94679.81;;;23.32;48.26
31337;BME280;22846;42.654;23.314;2023-11-19T09:30:41;94680.56;;;23.33;48.40
31337;BME280;22846;42.654;23.314;2023-11-19T09:33:07;94679.28;;;23.37;48.06
31337;BME280;22846;42.654;23.314;2023-11-19T09:35:32;94672.88;;;23.44;47.76
31337;BME280;22846;42.654;23.314;2023-11-19T09:37:58;94659.91;;;23.48;47.77
31337;BME280;22846;42.654;23.314;2023-11-19T09:40:24;94650.88;;;23.51;48.11
31337;BME280;22846;42.654;23.314;2023-11-19T09:42:50;94635.19;;;23.55;47.51
31337;BME280;22846;42.654;23.314;2023-11-19T09:45:17;94624.31;;;23.67;47.50
31337;BME280;22846;42.654;23.314;2023-11-19T09:47:46;94631.22;;;23.72;47.45
31337;BME280;22846;42.654;23.314;2023-11-19T09:50:18;94602.06;;;23.69;47.51
31337;BME280;22846;42.654;23.314;2023-11-19T09:52:45;94602.75;;;23.85;47.10
31337;BME280;22846;42.654;23.314;2023-11-19T09:55:11;94600.50;;;23.96;46.57
31337;BME280;22846;42.654;23.314;2023-11-19T09:57:40;94582.56;;;23.95;46.63
31337;BME280;22846;42.654;23.314;2023-11-19T10:00:10;94583.88;;;24.03;46.74
31337;BME280;22846;42.654;23.314;2023-11-19T10:02:36;94574.97;;;24.15;46.65
31337;BME280;22846;42.654;23.314;2023-11-19T10:05:05;94578.34;;;24.19;46.70
31337;BME280;22846;42.654;23.314;2023-11-19T10:07:32;94574.97;;;24.27;46.27
31337;BME280;22846;42.654;23.314;2023-11-19T10:10:01;94598.25;;;24.57;46.71
31337;BME280;22846;42.654;23.314;2023-11-19T10:12:29;94578.25;;;24.60;46.24
31337;BME280;22846;42.654;23.314;2023-11-19T10:14:57;94596.38;;;24.78;46.31
31337;BME280;22846;42.654;23.314;2023-11-19T10:17:33;94582.25;;;24.80;46.18
31337;BME280;22846;42.654;23.314;2023-11-19T10:19:59;94583.44;;;24.91;46.15
31337;BME280;22846;42.654;23.314;2023-11-19T10:22:25;94593.59;;;24.91;43.04
31337;BME280;22846;42.654;23.314;2023-11-19T10:24:52;94591.31;;;24.77;39.96
31337;BME280;22846;42.654;23.314;2023-11-19T10:27:18;94585.88;;;24.65;42.90
31337;BME280;22846;42.654;23.314;2023-11-19T10:29:47;94583.25;;;24.61;43.98
31337;BME280;22846;42.654;23.314;2023-11-19T10:32:13;94561.97;;;24.56;44.01
31337;BME280;22846;42.654;23.314;2023-11-19T10:34:42;94562.81;;;24.66;44.53
31337;BME280;22846;42.654;23.314;2023-11-19T10:37:08;94526.47;;;24.44;44.51
31337;BME280;22846;42.654;23.314;2023-11-19T10:40:01;94563.69;;;24.75;44.92
31337;BME280;22846;42.654;23.314;2023-11-19T10:42:30;94582.59;;;24.82;44.73
31337;BME280;22846;42.654;23.314;2023-11-19T10:44:55;94566.34;;;24.66;44.82
31337;BME280;22846;42.654;23.314;2023-11-19T10:47:22;94604.53;;;24.91;45.30
31337;BME280;22846;42.654;23.314;2023-11-19T10:49:48;94562.38;;;24.79;44.94
31337;BME280;22846;42.654;23.314;2023-11-19T10:52:17;94595.22;;;25.01;45.12
31337;BME280;22846;42.654;23.314;2023-11-19T10:54:44;94563.22;;;24.89;44.94
31337;BME280;22846;42.654;23.314;2023-11-19T10:57:19;94563.91;;;25.02;44.58
31337;BME280;22846;42.654;23.314;2023-11-19T10:59:46;94579.78;;;25.07;44.98
31337;BME280;22846;42.654;23.314;2023-11-19T11:02:16;94558.91;;;25.00;44.99
31337;BME280;22846;42.654;23.314;2023-11-19T11:04:46;94544.47;;;25.00;45.02
31337;BME280;22846;42.654;23.314;2023-11-19T11:07:14;94556.38;;;25.06;45.30
31337;BME280;22846;42.654;23.314;2023-11-19T11:09:41;94545.22;;;25.00;35.36
31337;BME280;22846;42.654;23.314;2023-11-19T11:12:09;94541.81;;;24.75;30.24
31337;BME280;22846;42.654;23.314;2023-11-19T11:14:37;94520.91;;;24.47;35.18
31337;BME280;22846;42.654;23.314;2023-11-19T11:17:04;94533.78;;;24.47;38.46
31337;BME280;22846;42.654;23.314;2023-11-19T11:19:33;94535.19;;;24.26;34.84
31337;BME280;22846;42.654;23.314;2023-11-19T11:22:00;94537.06;;;24.29;37.09
31337;BME280;22846;42.654;23.314;2023-11-19T11:27:55;94542.84;;;24.56;39.50
31337;BME280;22846;42.654;23.314;2023-11-19T11:30:35;94527.75;;;24.39;31.92
31337;BME280;22846;42.654;23.314;2023-11-19T11:33:26;94534.09;;;24.49;36.44
31337;BME280;22846;42.654;23.314;2023-11-19T11:38:28;94535.81;;;24.68;38.32
31337;BME280;22846;42.654;23.314;2023-11-19T11:43:50;94521.19;;;24.95;39.08
31337;BME280;22846;42.654;23.314;2023-11-19T11:49:04;94502.13;;;25.17;39.54
31337;BME280;22846;42.654;23.314;2023-11-19T11:54:14;94501.47;;;25.34;40.12
31337;BME280;22846;42.654;23.314;2023-11-19T11:57:12;94512.59;;;25.40;40.15
31337;BME280;22846;42.654;23.314;2023-11-19T12:02:11;94517.94;;;25.43;40.80
31337;BME280;22846;42.654;23.314;2023-11-19T12:04:36;94515.72;;;25.51;40.72
31337;BME280;22846;42.654;23.314;2023-11-19T12:09:31;94515.63;;;25.63;40.77
31337;BME280;22846;42.654;23.314;2023-11-19T12:12:20;94503.91;;;25.62;41.56
31337;BME280;22846;42.654;23.314;2023-11-19T12:20:05;94490.50;;;25.56;41.64
31337;BME280;22846;42.654;23.314;2023-11-19T12:22:41;94497.38;;;25.60;42.02
31337;BME280;22846;42.654;23.314;2023-11-19T12:25:08;94484.13;;;25.59;41.77
31337;BME280;22846;42.654;23.314;2023-11-19T12:27:39;94481.25;;;25.62;42.20
31337;BME280;22846;42.654;23.314;2023-11-19T12:30:05;94482.97;;;25.68;42.52
31337;BME280;22846;42.654;23.314;2023-11-19T12:32:57;94482.19;;;25.68;42.76
31337;BME280;22846;42.654;23.314;2023-11-19T12:35:24;94474.63;;;25.72;43.02
31337;BME280;22846;42.654;23.314;2023-11-19T12:37:50;94450.53;;;25.58;42.64
31337;BME280;22846;42.654;23.314;2023-11-19T12:40:21;94464.25;;;25.67;43.42
31337;BME280;22846;42.654;23.314;2023-11-19T12:42:50;94456.97;;;25.64;42.33
31337;BME280;22846;42.654;23.314;2023-11-19T12:45:16;94469.63;;;25.70;42.73
31337;BME280;22846;42.654;23.314;2023-11-19T12:47:43;94473.25;;;25.67;41.92
31337;BME280;22846;42.654;23.314;2023-11-19T12:50:09;94467.25;;;25.60;41.07
31337;BME280;22846;42.654;23.314;2023-11-19T12:52:38;94467.72;;;25.59;40.27
31337;BME280;22846;42.654;23.314;2023-11-19T12:57:51;94469.38;;;25.56;39.44
31337;BME280;22846;42.654;23.314;2023-11-19T13:00:21;94471.03;;;25.54;39.77
31337;BME280;22846;42.654;23.314;2023-11-19T13:02:51;94459.47;;;25.50;39.16
31337;BME280;22846;42.654;23.314;2023-11-19T13:07:57;94448.66;;;25.46;39.01
31337;BME280;22846;42.654;23.314;2023-11-19T13:10:23;94444.72;;;25.47;38.09
31337;BME280;22846;42.654;23.314;2023-11-19T13:13:07;94430.53;;;25.40;39.48
31337;BME280;22846;42.654;23.314;2023-11-19T13:15:34;94445.88;;;25.37;37.23
31337;BME280;22846;42.654;23.314;2023-11-19T13:18:00;94446.47;;;25.41;37.85
31337;BME280;22846;42.654;23.314;2023-11-19T13:20:26;94441.50;;;25.49;37.90
31337;BME280;22846;42.654;23.314;2023-11-19T13:22:59;94440.22;;;25.62;37.49
31337;BME280;22846;42.654;23.314;2023-11-19T13:25:28;94435.94;;;25.61;28.90